หน้าหลัก
METAR-TAF:

METAR-TAF

ท่าอากาศยาน :

Benson, อังกฤษ

ละติจูด: 51-37N, ลองจิจูด: 001-05W, ความสูง: 63 ม.

การสังเกตสภาพอากาศปัจจุบัน

รายงานได้ทำขึ้นเมื่อ 25 นาทีที่แล้ว ณ เวลา 03:20 UTC
ลม 2 นอตจากใต้/ตะวันออกเฉียงใต้
อุณหภูมิ 5°C
ความชื้น 93%
ความกดอากาศ 1016 hPa
ทัศนวิสัย 10 กม. หรือมากกว่า

METAR: EGUB 130320Z AUTO 16002KT 9999 NCD 05/04 Q1016

เวลา: 04:45 (03:45 UTC)

การพยากรณ์

รายงานได้ทำขึ้นเมื่อ 14 ชั่วโมงและ 5 นาทีที่แล้ว ณ เวลา 13:40 UTC
การพยากรณ์มีผลตั้งแต่วันที่ 12 ณ เวลา 15 UTC จนถึงวันที่ 12 ณ เวลา 24 UTC
ลม 5 นอตจากตะวันตก
ทัศนวิสัย 10 กม. หรือมากกว่า
มีเมฆกระจายเป็นบางส่วนที่ความสูง 4500 ฟุต

TAF: EGUB 121340Z 1215/1224 28005KT 9999 SCT045

สังเกตการณ์สภาพอากาศและพยากรณ์อากาศของสนามบินมากกว่า 4000 แห่ง (รายงาน METAR และ TAF).

สถานีที่ดูได้จะแสดงไว้ด้วยจุดสีเหลืองและสีแดงบนแผนที่.

เลื่อนเมาส์ไปเหนือจุดเพื่อดูชื่อสถานี.

แล้วคลิกเพื่อดูสังเกตการณ์และการพยากรณ์สภาพอากาศ.

ในการเปลี่ยนแผนที่: คลิกที่ปุ่มสีเขียวที่มีกากบาทสีดำเพื่อซูมเข้า; ที่ปุ่มสีเขียวที่มีขีดเพื่อซูมออก; หรือที่ลูกศรสีเขียวเพื่อไปยังแผนที่ที่อยู่ติดกัน.


METAR-TAF: